KBDL/BDL METAR and TAF weather

Enter ICAO airport designator
Station Type Date Time Source
KBDL METAR 2018/12/13 14:51 UTC NOAA

KBDL 131451Z 02008KT 10SM BKN040 BKN130 OVC150 M05/M12 A3051 RMK AO2 SLP333 T10501122 51015


Station Type Date Time Source
KBDL Decoded METAR 2018/12/13 14:51 UTC NOAA

BRADLEY INTERNATIONAL AIRPORT , CT, United States (KBDL) 41-56N 072-41W 60M
Dec 13, 2018 - 09:51 AM EST / 2018.12.13 1451 UTC
Wind: from the NNE (020 degrees) at 9 MPH (8 KT):0
Visibility: 10 mile(s):0
Sky conditions: overcast
Temperature: 23.0 F (-5.0 C)
Windchill: 14 F (-10 C):1
Dew Point: 10.0 F (-12.2 C)
Relative Humidity: 56%
Pressure (altimeter): 30.51 in. Hg (1033 hPa)
Pressure tendency: 0.04 inches (1.5 hPa) higher than three hours ago
ob: KBDL 131451Z 02008KT 10SM BKN040 BKN130 OVC150 M05/M12 A3051 RMK AO2 SLP333 T10501122 51015
cycle: 15

Station Type Date Time Source
KBDL TAF 2018/12/13 15:21 UTC NOAA

TAF
AMD KBDL 131519Z 1315/1418 01007KT P6SM BKN045 OVC120
FM131630 02006KT 5SM -SN OVC035
FM132000 09006KT 6SM BR VCSH OVC030
FM140200 03003KT P6SM BKN015


Example: see airport list